createdAt,value
2022-11-09T00:00:25.571Z,65.2
2022-11-09T00:01:29.150Z,65.3
2022-11-09T00:02:32.580Z,65.2
2022-11-09T00:03:35.615Z,65.2
2022-11-09T00:04:38.941Z,65.3
2022-11-09T00:05:41.380Z,65.3
2022-11-09T00:06:44.749Z,65.4
2022-11-09T00:07:48.057Z,65.4
2022-11-09T00:08:50.996Z,65.5
2022-11-09T00:09:54.554Z,65.4
2022-11-09T00:10:57.593Z,65.6
2022-11-09T00:12:00.868Z,65.7
2022-11-09T00:13:04.972Z,65.7
2022-11-09T00:14:08.071Z,65.8
2022-11-09T00:15:11.580Z,65.7
2022-11-09T00:16:14.393Z,65.8
2022-11-09T00:17:16.848Z,65.9
2022-11-09T00:18:20.133Z,65.8
2022-11-09T00:19:23.494Z,65.8
2022-11-09T00:20:26.856Z,65.9
2022-11-09T00:21:30.280Z,65.8
2022-11-09T00:22:32.904Z,65.8
2022-11-09T00:23:35.984Z,65.9
2022-11-09T00:24:38.796Z,66
2022-11-09T00:25:41.606Z,66
2022-11-09T00:26:45.069Z,66
2022-11-09T00:27:48.321Z,66.1
2022-11-09T00:28:51.788Z,66.1
2022-11-09T00:29:54.388Z,66.1
2022-11-09T00:30:57.439Z,66.2
2022-11-09T00:31:59.868Z,66.3
2022-11-09T00:33:02.604Z,66.4
2022-11-09T00:34:05.421Z,66.3
2022-11-09T00:35:07.760Z,66.4
2022-11-09T00:36:11.254Z,66.4
2022-11-09T00:37:13.728Z,66.5
2022-11-09T00:38:17.042Z,66.5
2022-11-09T00:39:20.180Z,66.5
2022-11-09T00:40:23.009Z,66.6
2022-11-09T00:41:26.076Z,66.6
2022-11-09T00:42:29.176Z,66.7
2022-11-09T00:43:32.530Z,66.7
2022-11-09T00:44:36.777Z,66.8
2022-11-09T00:45:40.236Z,66.8
2022-11-09T00:46:43.050Z,66.8
2022-11-09T00:47:45.662Z,66.8
2022-11-09T00:48:49.024Z,66.8
2022-11-09T00:49:52.135Z,66.9
2022-11-09T00:50:54.899Z,66.9
2022-11-09T00:51:58.026Z,66.9
2022-11-09T00:53:01.194Z,66.8
2022-11-09T00:54:04.549Z,66.9
2022-11-09T00:55:07.343Z,66.9
2022-11-09T00:56:10.483Z,67
2022-11-09T00:57:13.755Z,66.8
2022-11-09T00:58:16.922Z,67
2022-11-09T00:59:20.108Z,66.9
2022-11-09T01:00:23.646Z,66.9
2022-11-09T01:01:26.591Z,67
2022-11-09T01:02:30.234Z,67
2022-11-09T01:03:32.687Z,67
2022-11-09T01:04:35.691Z,67
2022-11-09T01:05:38.486Z,67.1
2022-11-09T01:06:42.101Z,67.2
2022-11-09T01:07:45.241Z,67.2
2022-11-09T01:08:48.545Z,67.2
2022-11-09T01:09:50.981Z,67.2
2022-11-09T01:10:54.057Z,67.2
2022-11-09T01:11:57.516Z,67.2
2022-11-09T01:13:00.126Z,67.2
2022-11-09T01:14:02.957Z,67.2
2022-11-09T01:15:05.957Z,67.1
2022-11-09T01:16:09.718Z,67.2
2022-11-09T01:17:13.453Z,67.2
2022-11-09T01:18:15.956Z,67.2
2022-11-09T01:19:18.395Z,67.2
2022-11-09T01:20:21.282Z,67.2
2022-11-09T01:21:24.276Z,67.1
2022-11-09T01:22:27.368Z,67.1
2022-11-09T01:23:30.785Z,67.1
2022-11-09T01:24:34.428Z,67.1
2022-11-09T01:25:37.026Z,67.1
2022-11-09T01:26:39.548Z,67.1
2022-11-09T01:27:42.709Z,67.2
2022-11-09T01:28:45.999Z,67.1
2022-11-09T01:29:49.462Z,67.3
2022-11-09T01:30:52.328Z,67.3
2022-11-09T01:31:56.115Z,67.4
2022-11-09T01:32:58.628Z,67.4
2022-11-09T01:34:01.766Z,67.4
2022-11-09T01:35:04.753Z,67.4
2022-11-09T01:36:08.212Z,67.4
2022-11-09T01:37:11.684Z,67.5
2022-11-09T01:38:14.580Z,67.6
2022-11-09T01:39:18.065Z,67.5
2022-11-09T01:40:21.865Z,67.6
2022-11-09T01:41:24.863Z,67.6
2022-11-09T01:42:28.240Z,67.5
2022-11-09T01:43:31.060Z,67.4
2022-11-09T01:44:34.050Z,67.5
2022-11-09T01:45:37.325Z,67.4
2022-11-09T01:46:40.746Z,67.4
2022-11-09T01:47:43.848Z,67.4
2022-11-09T01:48:47.307Z,67.5
2022-11-09T01:49:50.646Z,67.5
2022-11-09T01:50:53.095Z,67.4
2022-11-09T01:51:55.690Z,67.4
2022-11-09T01:52:58.773Z,67.4
2022-11-09T01:54:01.318Z,67.4
2022-11-09T01:55:04.667Z,67.4
2022-11-09T01:56:07.807Z,67.4
2022-11-09T01:57:11.533Z,67.4
2022-11-09T01:58:14.367Z,67.4
2022-11-09T01:59:17.532Z,67.5
2022-11-09T02:00:20.320Z,67.5
2022-11-09T02:01:24.180Z,67.6
2022-11-09T02:02:27.818Z,67.5
2022-11-09T02:03:31.559Z,67.5
2022-11-09T02:04:34.346Z,67.5
2022-11-09T02:05:37.344Z,67.4
2022-11-09T02:06:40.006Z,67.4
2022-11-09T02:07:43.422Z,67.5
2022-11-09T02:08:45.856Z,67.5
2022-11-09T02:09:48.933Z,67.6
2022-11-09T02:10:51.979Z,67.6
2022-11-09T02:11:54.599Z,67.5
2022-11-09T02:12:56.822Z,67.5
2022-11-09T02:14:00.259Z,67.5
2022-11-09T02:15:02.969Z,67.5
2022-11-09T02:16:05.839Z,67.6
2022-11-09T02:17:09.007Z,67.7
2022-11-09T02:18:11.519Z,67.6
2022-11-09T02:19:15.625Z,67.6
2022-11-09T02:20:19.392Z,67.6
2022-11-09T02:21:22.204Z,67.6
2022-11-09T02:22:25.115Z,67.7
2022-11-09T02:23:28.217Z,67.6
2022-11-09T02:24:30.826Z,67.5
2022-11-09T02:25:33.837Z,67.5
2022-11-09T02:26:37.288Z,67.5
2022-11-09T02:27:40.099Z,67.4
2022-11-09T02:28:42.899Z,67.3
2022-11-09T02:29:46.334Z,67.3
2022-11-09T02:30:48.689Z,67.3
2022-11-09T02:31:52.111Z,67.3
2022-11-09T02:32:55.600Z,67.5
2022-11-09T02:33:58.491Z,67.5
2022-11-09T02:35:02.204Z,67.5
2022-11-09T02:36:04.918Z,67.5
2022-11-09T02:37:07.817Z,67.5
2022-11-09T02:38:10.888Z,67.5
2022-11-09T02:39:13.521Z,67.5
2022-11-09T02:40:16.339Z,67.5
2022-11-09T02:41:19.835Z,67.5
2022-11-09T02:42:23.163Z,67.5
2022-11-09T02:43:26.147Z,67.4
2022-11-09T02:44:28.939Z,67.5
2022-11-09T02:45:32.370Z,67.5
2022-11-09T02:46:35.672Z,67.6
2022-11-09T02:47:38.474Z,67.6
2022-11-09T02:48:42.314Z,67.6
2022-11-09T02:49:44.761Z,67.6
2022-11-09T02:50:48.058Z,67.6
2022-11-09T02:51:51.059Z,67.6
2022-11-09T02:52:54.046Z,67.6
2022-11-09T02:53:56.644Z,67.6
2022-11-09T02:54:59.732Z,67.7
2022-11-09T02:56:02.812Z,67.8
2022-11-09T02:57:06.603Z,67.8
2022-11-09T02:58:09.437Z,67.8
2022-11-09T02:59:12.520Z,67.7
2022-11-09T03:00:15.139Z,67.8
2022-11-09T03:01:18.497Z,67.9
2022-11-09T03:02:22.032Z,67.9
2022-11-09T03:03:25.302Z,67.9
2022-11-09T03:04:28.488Z,67.9
2022-11-09T03:05:31.008Z,68
2022-11-09T03:06:34.950Z,68
2022-11-09T03:07:38.429Z,68
2022-11-09T03:08:41.331Z,68
2022-11-09T03:09:44.519Z,67.9
2022-11-09T03:10:47.611Z,67.8
2022-11-09T03:11:50.418Z,67.9
2022-11-09T03:12:53.434Z,67.9
2022-11-09T03:13:56.065Z,67.9
2022-11-09T03:14:59.259Z,67.9
2022-11-09T03:16:02.333Z,67.9
2022-11-09T03:17:04.518Z,67.8
2022-11-09T03:18:07.699Z,67.9
2022-11-09T03:19:10.420Z,67.9
2022-11-09T03:20:13.376Z,67.9
2022-11-09T03:21:16.644Z,67.9
2022-11-09T03:22:18.910Z,67.9
2022-11-09T03:23:23.129Z,68
2022-11-09T03:24:25.874Z,67.9
2022-11-09T03:25:28.973Z,67.9
2022-11-09T03:26:31.781Z,67.9
2022-11-09T03:27:34.578Z,67.9
2022-11-09T03:28:37.327Z,67.8
2022-11-09T03:29:40.148Z,67.7
2022-11-09T03:30:43.148Z,67.8
2022-11-09T03:31:46.289Z,67.9
2022-11-09T03:32:51.670Z,67.9
2022-11-09T03:33:55.430Z,67.9
2022-11-09T03:34:58.521Z,67.9
2022-11-09T03:36:01.932Z,67.9
2022-11-09T03:37:05.205Z,67.8
2022-11-09T03:38:09.440Z,67.9
2022-11-09T03:39:12.453Z,67.9
2022-11-09T03:40:15.834Z,67.9
2022-11-09T03:41:18.905Z,67.9
2022-11-09T03:42:21.445Z,68
2022-11-09T03:43:24.756Z,68
2022-11-09T03:44:27.619Z,68
2022-11-09T03:45:30.720Z,68
2022-11-09T03:46:33.983Z,67.9
2022-11-09T03:47:36.776Z,67.9
2022-11-09T03:48:40.138Z,68
2022-11-09T03:49:43.434Z,68
2022-11-09T03:50:45.959Z,68.1
2022-11-09T03:51:49.137Z,68
2022-11-09T03:52:52.228Z,68.1
2022-11-09T03:53:55.891Z,68.1
2022-11-09T03:54:58.967Z,68.1
2022-11-09T03:56:02.131Z,68.1
2022-11-09T03:57:04.927Z,68.1
2022-11-09T03:58:08.122Z,68.1
2022-11-09T03:59:11.458Z,68
2022-11-09T04:00:14.441Z,68.1
2022-11-09T04:01:17.715Z,68
2022-11-09T04:02:20.919Z,68
2022-11-09T04:03:24.588Z,68
2022-11-09T04:04:27.124Z,67.9
2022-11-09T04:05:29.100Z,67.9
2022-11-09T04:06:33.089Z,68
2022-11-09T04:07:36.734Z,68
2022-11-09T04:08:39.251Z,67.9
2022-11-09T04:09:42.462Z,67.9
2022-11-09T04:10:45.608Z,67.9
2022-11-09T04:11:49.078Z,67.9
2022-11-09T04:12:51.781Z,68
2022-11-09T04:13:55.427Z,67.8
2022-11-09T04:14:58.903Z,67.8
2022-11-09T04:16:01.719Z,67.8
2022-11-09T04:17:04.632Z,67.9
2022-11-09T04:18:07.361Z,67.8
2022-11-09T04:19:10.631Z,67.7
2022-11-09T04:20:13.437Z,67.8
2022-11-09T04:21:24.893Z,67.7
2022-11-09T04:22:27.973Z,67.7
2022-11-09T04:23:31.150Z,67.7
2022-11-09T04:24:33.876Z,67.6
2022-11-09T04:25:37.317Z,67.6
2022-11-09T04:26:40.621Z,67.6
2022-11-09T04:27:42.852Z,67.7
2022-11-09T04:28:45.104Z,67.6
2022-11-09T04:29:48.522Z,67.7
2022-11-09T04:30:51.597Z,67.7
2022-11-09T04:31:54.776Z,67.7
2022-11-09T04:32:57.938Z,67.6
2022-11-09T04:34:01.015Z,67.6
2022-11-09T04:35:04.808Z,67.6
2022-11-09T04:36:08.169Z,67.6
2022-11-09T04:37:10.987Z,67.6
2022-11-09T04:38:13.421Z,67.6
2022-11-09T04:39:16.678Z,67.6
2022-11-09T04:40:19.387Z,67.7
2022-11-09T04:41:22.842Z,67.6
2022-11-09T04:42:25.372Z,67.5
2022-11-09T04:43:28.525Z,67.5
2022-11-09T04:44:31.246Z,67.4
2022-11-09T04:45:33.904Z,67.5
2022-11-09T04:46:37.328Z,67.5
2022-11-09T04:47:40.407Z,67.4
2022-11-09T04:48:43.839Z,67.4
2022-11-09T04:49:46.407Z,67.4
2022-11-09T04:50:49.571Z,67.5
2022-11-09T04:51:51.801Z,67.5
2022-11-09T04:52:54.683Z,67.5
2022-11-09T04:53:58.318Z,67.4
2022-11-09T04:55:01.846Z,67.4
2022-11-09T04:56:04.306Z,67.4
2022-11-09T04:57:07.222Z,67.4
2022-11-09T04:58:09.745Z,67.3
2022-11-09T04:59:12.813Z,67.3
2022-11-09T05:00:16.337Z,67.2
2022-11-09T05:01:19.116Z,67.3
2022-11-09T05:02:21.638Z,67.3
2022-11-09T05:03:26.066Z,67.3
2022-11-09T05:04:29.340Z,67.3
2022-11-09T05:05:32.788Z,67.2
2022-11-09T05:06:36.549Z,67.2
2022-11-09T05:07:39.121Z,67.2
2022-11-09T05:08:42.134Z,67.2
2022-11-09T05:09:45.868Z,67.1
2022-11-09T05:10:49.324Z,67.2
2022-11-09T05:11:52.118Z,67.2
2022-11-09T05:12:55.569Z,67.2
2022-11-09T05:13:58.272Z,67.3
2022-11-09T05:15:01.701Z,67.3
2022-11-09T05:16:04.414Z,67.3
2022-11-09T05:17:06.754Z,67.3
2022-11-09T05:18:10.291Z,67.3
2022-11-09T05:19:13.655Z,67.3
2022-11-09T05:20:16.614Z,67.2
2022-11-09T05:21:19.671Z,67.1
2022-11-09T05:22:22.449Z,67.2
2022-11-09T05:23:25.953Z,67.1
2022-11-09T05:24:28.472Z,67.2
2022-11-09T05:25:31.272Z,67.1
2022-11-09T05:26:34.502Z,67.1
2022-11-09T05:27:37.115Z,67.2
2022-11-09T05:28:40.207Z,67.2
2022-11-09T05:29:43.085Z,67.1
2022-11-09T05:30:46.006Z,67.1
2022-11-09T05:31:53.628Z,67.2
2022-11-09T05:32:56.465Z,67.2
2022-11-09T05:33:59.262Z,67.1
2022-11-09T05:35:02.230Z,67.1
2022-11-09T05:36:05.006Z,67.2
2022-11-09T05:37:07.601Z,67.1
2022-11-09T05:38:10.038Z,67.1
2022-11-09T05:39:13.846Z,67.2
2022-11-09T05:40:17.211Z,67.1
2022-11-09T05:41:20.493Z,67.1
2022-11-09T05:42:22.761Z,67.1
2022-11-09T05:43:25.001Z,67.2
2022-11-09T05:44:28.482Z,67.4
2022-11-09T05:45:46.897Z,67.3
2022-11-09T05:46:50.013Z,67.4
2022-11-09T05:47:53.638Z,67.4
2022-11-09T05:48:56.661Z,67.4
2022-11-09T05:49:59.807Z,67.5
2022-11-09T05:51:03.108Z,67.5
2022-11-09T05:52:06.301Z,67.5
2022-11-09T05:53:09.190Z,67.4
2022-11-09T05:54:11.795Z,67.5
2022-11-09T05:55:14.226Z,67.5
2022-11-09T05:56:17.428Z,67.6
2022-11-09T05:57:20.489Z,67.5
2022-11-09T05:58:24.255Z,67.6
2022-11-09T05:59:28.050Z,67.7
2022-11-09T06:00:31.496Z,67.8
2022-11-09T06:01:34.086Z,67.7
2022-11-09T06:02:37.692Z,67.7
2022-11-09T06:03:40.861Z,67.8
2022-11-09T06:04:44.115Z,67.7
2022-11-09T06:05:47.740Z,67.8
2022-11-09T06:06:50.308Z,67.9
2022-11-09T06:07:53.679Z,67.9
2022-11-09T06:08:56.119Z,68
2022-11-09T06:09:58.845Z,68.1
2022-11-09T06:11:01.727Z,68.1
2022-11-09T06:12:04.281Z,68.1
2022-11-09T06:13:07.270Z,68.3
2022-11-09T06:14:10.743Z,68.4
2022-11-09T06:15:14.024Z,68.5
2022-11-09T06:16:17.730Z,68.6
2022-11-09T06:17:20.371Z,68.6
2022-11-09T06:18:23.738Z,68.6
2022-11-09T06:19:26.881Z,68.6
2022-11-09T06:20:30.218Z,68.5
2022-11-09T06:21:33.283Z,68.7
2022-11-09T06:22:35.748Z,68.7
2022-11-09T06:23:38.241Z,68.7
2022-11-09T06:24:41.321Z,68.7
2022-11-09T06:25:44.968Z,68.8
2022-11-09T06:26:48.496Z,69
2022-11-09T06:27:52.256Z,69
2022-11-09T06:28:55.675Z,69
2022-11-09T06:29:59.416Z,69
2022-11-09T06:31:02.231Z,69.1
2022-11-09T06:32:05.886Z,69.1
2022-11-09T06:33:08.956Z,69.1
2022-11-09T06:34:11.461Z,69.1
2022-11-09T06:35:14.601Z,69.3
2022-11-09T06:36:17.698Z,69.3
2022-11-09T06:37:21.153Z,69.5
2022-11-09T06:38:24.177Z,69.4
2022-11-09T06:39:27.663Z,69.5
2022-11-09T06:40:30.486Z,69.4
2022-11-09T06:41:33.429Z,69.5
2022-11-09T06:42:36.653Z,69.5
2022-11-09T06:43:40.183Z,69.5
2022-11-09T06:44:42.695Z,69.5
2022-11-09T06:45:46.151Z,69.5
2022-11-09T06:46:49.216Z,69.6
2022-11-09T06:47:52.685Z,69.5
2022-11-09T06:48:55.679Z,69.6
2022-11-09T06:49:58.634Z,69.6
2022-11-09T06:51:01.510Z,69.6
2022-11-09T06:52:03.867Z,69.6
2022-11-09T06:53:07.033Z,69.7
2022-11-09T06:54:09.771Z,69.7
2022-11-09T06:55:13.529Z,69.7
2022-11-09T06:56:16.890Z,69.7
2022-11-09T06:57:20.042Z,69.7
2022-11-09T06:58:23.107Z,69.7
2022-11-09T06:59:26.662Z,69.6
2022-11-09T07:00:30.001Z,69.5
2022-11-09T07:01:33.895Z,69.6
2022-11-09T07:02:37.160Z,69.6
2022-11-09T07:03:40.541Z,69.5
2022-11-09T07:04:43.059Z,69.6
2022-11-09T07:05:45.964Z,69.6
2022-11-09T07:06:49.761Z,69.5
2022-11-09T07:07:53.954Z,69.6
2022-11-09T07:08:56.505Z,69.5
2022-11-09T07:09:59.508Z,69.6
2022-11-09T07:11:02.549Z,69.6
2022-11-09T07:12:05.921Z,69.6
2022-11-09T07:13:09.091Z,69.5
2022-11-09T07:14:12.440Z,69.6
2022-11-09T07:15:16.269Z,69.7
2022-11-09T07:16:19.936Z,69.7
2022-11-09T07:17:23.121Z,69.8
2022-11-09T07:18:26.197Z,69.6
2022-11-09T07:19:29.570Z,69.6
2022-11-09T07:20:32.605Z,69.6
2022-11-09T07:21:35.795Z,69.6
2022-11-09T07:22:38.954Z,69.6
2022-11-09T07:23:42.404Z,69.6
2022-11-09T07:24:45.516Z,69.6
2022-11-09T07:25:49.557Z,69.6
2022-11-09T07:26:52.459Z,69.6
2022-11-09T07:27:56.084Z,69.6
2022-11-09T07:28:59.083Z,69.5
2022-11-09T07:30:02.617Z,69.6
2022-11-09T07:31:06.022Z,69.6
2022-11-09T07:32:08.906Z,69.6
2022-11-09T07:33:11.639Z,69.6
2022-11-09T07:34:14.805Z,69.7
2022-11-09T07:35:18.054Z,69.6
2022-11-09T07:36:23.242Z,69.5
2022-11-09T07:37:25.696Z,69.5
2022-11-09T07:38:28.851Z,69.5
2022-11-09T07:39:31.925Z,69.5
2022-11-09T07:40:35.379Z,70
2022-11-09T07:41:38.111Z,69.5
2022-11-09T07:42:41.633Z,69.5
2022-11-09T07:43:44.450Z,69.5
2022-11-09T07:44:47.446Z,69.5
2022-11-09T07:45:51.094Z,69.6
2022-11-09T07:46:53.829Z,69.6
2022-11-09T07:47:56.705Z,69.7
2022-11-09T07:48:59.518Z,69.7
2022-11-09T07:50:02.395Z,69.5
2022-11-09T07:51:06.087Z,69.8
2022-11-09T07:52:08.613Z,69.6
2022-11-09T07:53:12.279Z,69.5
2022-11-09T07:54:15.156Z,69.4
2022-11-09T07:55:18.426Z,69.5
2022-11-09T07:56:21.809Z,69.3
2022-11-09T07:57:25.142Z,69.3
2022-11-09T07:58:28.183Z,69.3
2022-11-09T07:59:31.175Z,69.3
2022-11-09T08:00:34.645Z,69.1
2022-11-09T08:01:38.359Z,69.2
2022-11-09T08:02:42.263Z,69.2
2022-11-09T08:03:45.619Z,69.4
2022-11-09T08:04:48.803Z,69.3
2022-11-09T08:05:51.924Z,69.2
2022-11-09T08:06:55.904Z,69.5
2022-11-09T08:07:58.956Z,69.4
2022-11-09T08:09:02.034Z,69.3
2022-11-09T08:10:04.552Z,69
2022-11-09T08:11:07.409Z,69
2022-11-09T08:12:10.497Z,68.9
2022-11-09T08:13:14.131Z,68.8
2022-11-09T08:14:17.839Z,68.9
2022-11-09T08:15:20.986Z,68.9
2022-11-09T08:16:24.602Z,68.7
2022-11-09T08:17:27.758Z,68.5
2022-11-09T08:18:32.406Z,68.3
2022-11-09T08:19:35.750Z,68.3
2022-11-09T08:20:39.197Z,68.3
2022-11-09T08:21:41.984Z,68.2
2022-11-09T08:22:45.136Z,68.3
2022-11-09T08:23:48.279Z,68.3
2022-11-09T08:24:51.374Z,68.2
2022-11-09T08:25:54.510Z,68.1
2022-11-09T08:26:57.996Z,68
2022-11-09T08:28:00.887Z,68.1
2022-11-09T08:29:04.219Z,68
2022-11-09T08:30:07.491Z,67.9
2022-11-09T08:31:10.330Z,67.9
2022-11-09T08:32:13.679Z,67.7
2022-11-09T08:33:17.069Z,67.8
2022-11-09T08:34:20.184Z,67.7
2022-11-09T08:35:22.978Z,67.5
2022-11-09T08:36:26.627Z,67.4
2022-11-09T08:37:30.016Z,67.3
2022-11-09T08:38:33.387Z,67.4
2022-11-09T08:39:36.468Z,67.1
2022-11-09T08:40:39.464Z,67.2
2022-11-09T08:41:42.931Z,67.5
2022-11-09T08:42:46.412Z,67.5
2022-11-09T08:43:49.891Z,67.2
2022-11-09T08:44:53.074Z,67.1
2022-11-09T08:45:56.478Z,67.1
2022-11-09T08:46:59.474Z,67
2022-11-09T08:48:02.631Z,67
2022-11-09T08:49:06.067Z,67
2022-11-09T08:50:09.161Z,66.8
2022-11-09T08:51:13.191Z,67.2
2022-11-09T08:52:16.639Z,67
2022-11-09T08:53:19.720Z,67
2022-11-09T08:54:23.154Z,66.8
2022-11-09T08:55:25.972Z,66.9
2022-11-09T08:56:28.684Z,66.7
2022-11-09T08:57:31.744Z,66.8
2022-11-09T08:58:34.628Z,67.6
2022-11-09T08:59:36.946Z,66.9
2022-11-09T09:00:39.763Z,66.9
2022-11-09T09:01:42.993Z,66.9
2022-11-09T09:02:46.324Z,66.9
2022-11-09T09:03:49.431Z,66.8
2022-11-09T09:04:51.675Z,66.8
2022-11-09T09:05:54.501Z,66.7
2022-11-09T09:06:58.643Z,66.6
2022-11-09T09:08:02.233Z,66.6
2022-11-09T09:09:05.056Z,66.6
2022-11-09T09:10:08.303Z,66.5
2022-11-09T09:11:11.499Z,66.4
2022-11-09T09:12:14.466Z,66.3
2022-11-09T09:13:17.562Z,65.8
2022-11-09T09:14:20.693Z,65.9
2022-11-09T09:15:23.973Z,66
2022-11-09T09:16:26.565Z,66.1
2022-11-09T09:17:29.392Z,66.2
2022-11-09T09:18:32.574Z,66.3
2022-11-09T09:19:36.378Z,66.3
2022-11-09T09:20:39.673Z,66.4
2022-11-09T09:21:43.360Z,66.4
2022-11-09T09:22:46.441Z,66.4
2022-11-09T09:23:49.653Z,66.5
2022-11-09T09:24:52.260Z,66.5
2022-11-09T09:26:00.121Z,66.8
2022-11-09T09:27:03.572Z,66.6
2022-11-09T09:28:06.361Z,66.7
2022-11-09T09:29:09.802Z,66.9
2022-11-09T09:30:13.617Z,66.9
2022-11-09T09:31:20.234Z,66.9
2022-11-09T09:32:23.704Z,66.7
2022-11-09T09:33:26.564Z,66.8
2022-11-09T09:34:29.359Z,66.7
2022-11-09T09:35:32.739Z,66.8
2022-11-09T09:36:35.466Z,66.7
2022-11-09T09:37:38.502Z,67
2022-11-09T09:38:41.422Z,66.6
2022-11-09T09:39:44.883Z,66.5
2022-11-09T09:40:47.805Z,66.3
2022-11-09T09:41:51.019Z,66.4
2022-11-09T09:42:55.155Z,66.2
2022-11-09T09:43:58.235Z,66.2
2022-11-09T09:45:01.505Z,65.9
2022-11-09T09:46:05.027Z,65.4
2022-11-09T09:47:08.201Z,65.1
2022-11-09T09:48:11.473Z,64.7
2022-11-09T09:49:14.678Z,64.5
2022-11-09T09:50:17.731Z,64.2
2022-11-09T09:51:20.712Z,64
2022-11-09T09:52:24.136Z,63.8
2022-11-09T09:53:26.982Z,63.8
2022-11-09T09:54:30.356Z,63.9
2022-11-09T09:55:34.097Z,63.7
2022-11-09T09:56:37.352Z,63.8
2022-11-09T09:57:43.572Z,63.9
2022-11-09T09:58:46.668Z,64
2022-11-09T09:59:50.020Z,64
2022-11-09T10:00:52.687Z,64.3
2022-11-09T10:01:56.088Z,64.2
2022-11-09T10:02:59.813Z,64.2
2022-11-09T10:04:03.794Z,64.7
2022-11-09T10:05:07.343Z,64.6
2022-11-09T10:06:10.221Z,64.2
2022-11-09T10:07:13.376Z,64.5
2022-11-09T10:08:16.462Z,64.2
2022-11-09T10:09:19.705Z,64.3
2022-11-09T10:10:22.769Z,64.4
2022-11-09T10:11:25.883Z,64.4
2022-11-09T10:12:29.516Z,64.1
2022-11-09T10:13:32.439Z,64.3
2022-11-09T10:14:35.549Z,65.1
2022-11-09T10:15:38.741Z,65
2022-11-09T10:16:41.732Z,65.1
2022-11-09T10:17:45.229Z,64.4
2022-11-09T10:18:48.234Z,64.9
2022-11-09T10:19:51.710Z,64.7
2022-11-09T10:20:54.700Z,65
2022-11-09T10:21:58.059Z,66.6
2022-11-09T10:23:00.593Z,65.1
2022-11-09T10:24:03.732Z,65.5
2022-11-09T10:26:08.899Z,65
2022-11-09T10:27:19.121Z,65.5
2022-11-09T10:28:23.245Z,65.8
2022-11-09T10:29:27.215Z,65.6
2022-11-09T10:30:31.215Z,65.5
2022-11-09T10:31:34.804Z,66.2
2022-11-09T10:32:37.910Z,65.8
2022-11-09T10:33:40.387Z,65.8
2022-11-09T10:34:43.525Z,65.9
2022-11-09T10:35:45.996Z,65.8
2022-11-09T10:36:48.822Z,67.9
2022-11-09T10:37:52.172Z,65.9
2022-11-09T10:38:55.625Z,65.8
2022-11-09T10:39:58.443Z,66.7
2022-11-09T10:41:02.094Z,66.5
2022-11-09T10:42:04.938Z,66.9
2022-11-09T10:43:08.944Z,66.1
2022-11-09T10:44:18.885Z,66.5
2022-11-09T10:45:22.062Z,65.9
2022-11-09T10:46:25.428Z,66.1
2022-11-09T10:47:28.222Z,65.5
2022-11-09T10:48:31.600Z,65.8
2022-11-09T10:49:35.086Z,65.5
2022-11-09T10:50:38.544Z,65
2022-11-09T10:51:41.631Z,65.3
2022-11-09T10:52:48.805Z,65.4
2022-11-09T10:53:52.250Z,65.5
2022-11-09T10:54:55.075Z,65.2
2022-11-09T10:55:58.158Z,64.6
2022-11-09T10:57:08.205Z,64.4
2022-11-09T10:58:11.313Z,64.3
2022-11-09T10:59:15.040Z,64.1
2022-11-09T11:00:17.817Z,62.8
2022-11-09T11:01:22.020Z,62.2
2022-11-09T11:02:26.139Z,61.6
2022-11-09T11:03:29.348Z,61.1
2022-11-09T11:04:31.849Z,60.9
2022-11-09T11:05:35.487Z,60.2
2022-11-09T11:06:38.838Z,58.8
2022-11-09T11:07:42.525Z,58.6
2022-11-09T11:08:46.029Z,57.8
2022-11-09T11:09:49.470Z,57.2
2022-11-09T11:11:36.835Z,57.1
2022-11-09T11:12:41.965Z,56.3
2022-11-09T11:13:45.356Z,55.2
2022-11-09T11:14:48.724Z,55.1
2022-11-09T11:15:51.802Z,55.4
2022-11-09T11:16:54.564Z,55.4
2022-11-09T11:17:57.003Z,55.2
2022-11-09T11:19:00.469Z,54.9
2022-11-09T11:20:03.741Z,55.5
2022-11-09T11:21:07.223Z,55.5
2022-11-09T11:22:10.504Z,55.2
2022-11-09T11:23:13.810Z,55.6
2022-11-09T11:24:17.126Z,55.6
2022-11-09T11:25:20.304Z,55.7
2022-11-09T11:26:23.663Z,55.9
2022-11-09T11:27:27.058Z,55.9
2022-11-09T11:28:29.902Z,56
2022-11-09T11:29:33.299Z,56.2
2022-11-09T11:30:36.692Z,56.2
2022-11-09T11:31:39.852Z,56.7
2022-11-09T11:32:51.960Z,56.8
2022-11-09T11:33:55.405Z,57.5
2022-11-09T11:35:03.241Z,57.8
2022-11-09T11:36:06.286Z,58
2022-11-09T11:37:09.402Z,58.2
2022-11-09T11:38:12.549Z,58.4
2022-11-09T11:39:15.370Z,58.6
2022-11-09T11:40:18.153Z,58.8
2022-11-09T11:41:22.035Z,58.8
2022-11-09T11:42:25.479Z,59.2
2022-11-09T11:43:28.856Z,59.7
2022-11-09T11:44:31.786Z,60.1
2022-11-09T11:45:43.035Z,59.9
2022-11-09T11:46:45.594Z,60
2022-11-09T11:47:49.382Z,60
2022-11-09T11:48:52.300Z,60.3
2022-11-09T11:49:55.457Z,60.5
2022-11-09T11:50:58.930Z,60.5
2022-11-09T11:52:02.007Z,60.6
2022-11-09T11:53:05.649Z,60.4
2022-11-09T11:54:08.720Z,60.3
2022-11-09T11:55:11.861Z,60.3
2022-11-09T11:56:14.987Z,60.6
2022-11-09T11:57:18.166Z,60.8
2022-11-09T11:58:21.617Z,60.5
2022-11-09T11:59:25.144Z,60.4
2022-11-09T12:00:28.180Z,60.7
2022-11-09T12:01:30.748Z,60.6
2022-11-09T12:02:33.825Z,60.7
2022-11-09T12:03:36.811Z,61
2022-11-09T12:04:40.549Z,61
2022-11-09T12:05:43.885Z,61
2022-11-09T12:06:47.058Z,61.1
2022-11-09T12:07:58.200Z,60.8
2022-11-09T12:09:01.503Z,60.9
2022-11-09T12:10:04.104Z,61.1
2022-11-09T12:11:07.842Z,61.5
2022-11-09T12:12:10.874Z,61.4
2022-11-09T12:13:13.483Z,61.6
2022-11-09T12:14:16.567Z,61.8
2022-11-09T12:15:19.742Z,62
2022-11-09T12:16:22.661Z,62
2022-11-09T12:17:26.485Z,62
2022-11-09T12:18:29.566Z,62.2
2022-11-09T12:19:37.209Z,62.4
2022-11-09T12:20:40.306Z,62.4
2022-11-09T12:21:43.465Z,62.4
2022-11-09T12:22:46.294Z,62.8
2022-11-09T12:23:49.094Z,62.6
2022-11-09T12:24:53.141Z,62.6
2022-11-09T12:25:55.951Z,62.8
2022-11-09T12:27:34.027Z,62.8
2022-11-09T12:28:36.804Z,62.6
2022-11-09T12:29:39.938Z,62.5
2022-11-09T12:30:43.068Z,62.6
2022-11-09T12:31:46.249Z,62.5
2022-11-09T12:32:49.451Z,62
2022-11-09T12:33:52.316Z,61.7
2022-11-09T12:34:55.199Z,61.7
2022-11-09T12:35:58.375Z,61.7
2022-11-09T12:37:02.013Z,61.4
2022-11-09T12:38:06.089Z,61.4
2022-11-09T12:39:08.797Z,61
2022-11-09T12:40:12.469Z,60.7
2022-11-09T12:41:15.382Z,60.8
2022-11-09T12:42:18.773Z,60.2
2022-11-09T12:43:23.697Z,60
2022-11-09T12:44:27.545Z,59.3
2022-11-09T12:45:30.977Z,58.8
2022-11-09T12:46:33.817Z,58.4
2022-11-09T12:47:36.393Z,58.1
2022-11-09T12:48:39.858Z,58.1
2022-11-09T12:49:43.044Z,58.2
2022-11-09T12:50:47.119Z,57.4
2022-11-09T12:51:52.330Z,56.9
2022-11-09T12:53:01.573Z,57.1
2022-11-09T12:54:04.468Z,57
2022-11-09T12:55:07.476Z,57.2
2022-11-09T12:56:10.484Z,57.4
2022-11-09T12:57:13.639Z,57.7
2022-11-09T12:58:16.827Z,57.7
2022-11-09T12:59:19.787Z,57.9
2022-11-09T13:00:22.289Z,58.3
2022-11-09T13:01:25.393Z,58.5
2022-11-09T13:02:29.193Z,58.5
2022-11-09T13:03:32.049Z,58.6
2022-11-09T13:04:35.663Z,58.9
2022-11-09T13:05:39.170Z,59.1
2022-11-09T13:06:42.703Z,58.9
2022-11-09T13:07:45.682Z,59.1
2022-11-09T13:08:48.782Z,59
2022-11-09T13:09:51.832Z,59
2022-11-09T13:10:55.002Z,59.4
2022-11-09T13:11:58.854Z,59.3
2022-11-09T13:13:02.211Z,59.5
2022-11-09T13:14:05.234Z,59.3
2022-11-09T13:15:08.558Z,59.4
2022-11-09T13:16:11.771Z,59.4
2022-11-09T13:17:15.097Z,59.6
2022-11-09T13:18:17.905Z,59.5
2022-11-09T13:19:21.385Z,59.5
2022-11-09T13:20:58.376Z,59.3
2022-11-09T13:22:02.907Z,59.6
2022-11-09T13:23:06.350Z,59.1
2022-11-09T13:24:25.159Z,59.3
2022-11-09T13:25:28.832Z,59.1
2022-11-09T13:26:31.661Z,58.7
2022-11-09T13:27:34.560Z,58.8
2022-11-09T13:28:36.718Z,58.9
2022-11-09T13:29:40.377Z,58.8
2022-11-09T13:30:43.792Z,58.8
2022-11-09T13:31:46.344Z,58.8
2022-11-09T13:32:49.414Z,58.9
2022-11-09T13:33:52.088Z,59.5
2022-11-09T13:34:55.017Z,59.5
2022-11-09T13:35:58.821Z,59.5
2022-11-09T13:37:02.285Z,59.1
2022-11-09T13:38:11.198Z,59.3
2022-11-09T13:39:14.339Z,59.7
2022-11-09T13:40:17.060Z,59.3
2022-11-09T13:41:20.504Z,59.3
2022-11-09T13:42:23.616Z,59.4
2022-11-09T13:43:26.995Z,59.6
2022-11-09T13:44:41.440Z,59.7
2022-11-09T13:45:51.017Z,59.6
2022-11-09T13:46:54.528Z,59.8
2022-11-09T13:47:57.854Z,60
2022-11-09T13:49:01.576Z,60
2022-11-09T13:50:04.500Z,60.1
2022-11-09T13:51:07.893Z,59.5
2022-11-09T13:52:11.614Z,59.4
2022-11-09T13:53:15.575Z,59.4
2022-11-09T13:54:18.726Z,59.6
2022-11-09T13:55:21.786Z,59.8
2022-11-09T13:56:28.878Z,59.9
2022-11-09T13:57:32.651Z,59.9
2022-11-09T13:58:35.463Z,60.2
2022-11-09T13:59:38.927Z,60.4
2022-11-09T14:00:42.732Z,60.5
2022-11-09T14:01:46.741Z,60.5
2022-11-09T14:02:50.361Z,60.2
2022-11-09T14:03:53.934Z,60.2
2022-11-09T14:04:57.100Z,60.1
2022-11-09T14:05:59.926Z,60.5
2022-11-09T14:07:03.684Z,60.6
2022-11-09T14:08:08.144Z,60.5
2022-11-09T14:09:11.674Z,60.3
2022-11-09T14:10:14.554Z,60.2
2022-11-09T14:11:18.323Z,60.3